createdAt,value
2019-04-21T00:00:52.376Z,47.40
2019-04-21T00:02:50.930Z,47.60
2019-04-21T00:07:22.062Z,47.80
2019-04-21T00:09:34.628Z,47.70
2019-04-21T00:11:36.255Z,47.80
2019-04-21T00:13:32.566Z,47.60
2019-04-21T00:15:37.813Z,47.60
2019-04-21T00:17:35.063Z,47.80
2019-04-21T00:19:49.663Z,47.70
2019-04-21T00:22:15.026Z,48.00
2019-04-21T00:24:24.891Z,48.20
2019-04-21T00:26:36.499Z,48.30
2019-04-21T00:28:51.938Z,48.70
2019-04-21T00:30:50.499Z,48.70
2019-04-21T00:32:52.619Z,49.10
2019-04-21T00:34:51.018Z,49.00
2019-04-21T00:37:03.632Z,49.20
2019-04-21T00:39:28.798Z,49.30
2019-04-21T00:41:29.672Z,49.70
2019-04-21T00:43:29.427Z,49.90
2019-04-21T00:45:31.577Z,50.30
2019-04-21T00:47:39.223Z,50.00
2019-04-21T00:49:53.922Z,50.00
2019-04-21T00:52:35.399Z,50.30
2019-04-21T00:54:37.387Z,50.00
2019-04-21T00:56:49.619Z,50.00
2019-04-21T00:59:05.720Z,50.00
2019-04-21T01:01:09.043Z,51.20
2019-04-21T01:03:14.754Z,51.00
2019-04-21T01:05:21.339Z,51.00
2019-04-21T01:07:30.510Z,51.20
2019-04-21T01:09:27.920Z,51.30
2019-04-21T01:11:44.958Z,51.50
2019-04-21T01:13:54.668Z,51.30
2019-04-21T01:15:54.564Z,51.50
2019-04-21T01:18:03.550Z,51.50
2019-04-21T01:20:01.145Z,51.60
2019-04-21T01:22:11.795Z,51.90
2019-04-21T01:24:26.574Z,51.90
2019-04-21T01:26:32.814Z,52.30
2019-04-21T01:28:50.851Z,52.50
2019-04-21T01:30:57.332Z,52.40
2019-04-21T01:33:00.029Z,52.40
2019-04-21T01:35:10.151Z,52.60
2019-04-21T01:37:14.168Z,53.10
2019-04-21T01:39:27.424Z,53.30
2019-04-21T01:41:37.299Z,53.40
2019-04-21T01:43:38.386Z,53.60
2019-04-21T01:45:37.628Z,53.70
2019-04-21T01:47:46.425Z,53.80
2019-04-21T01:49:43.194Z,54.10
2019-04-21T01:52:34.403Z,54.20
2019-04-21T01:54:45.539Z,54.30
2019-04-21T01:57:01.805Z,54.80
2019-04-21T01:59:02.719Z,55.10
2019-04-21T02:01:47.280Z,55.30
2019-04-21T02:03:56.869Z,55.40
2019-04-21T02:06:11.129Z,55.60
2019-04-21T02:08:10.952Z,55.50
2019-04-21T02:10:27.376Z,55.90
2019-04-21T02:12:40.614Z,56.30
2019-04-21T02:15:20.085Z,56.50
2019-04-21T02:17:05.596Z,56.80
2019-04-21T02:19:08.392Z,57.00
2019-04-21T02:21:04.407Z,57.20
2019-04-21T02:25:31.721Z,57.10
2019-04-21T02:27:57.591Z,57.50
2019-04-21T02:30:12.738Z,57.50
2019-04-21T02:34:13.080Z,58.00
2019-04-21T02:38:39.858Z,58.40
2019-04-21T02:40:51.259Z,58.70
2019-04-21T02:42:57.277Z,58.60
2019-04-21T02:45:17.124Z,58.90
2019-04-21T02:47:31.309Z,59.30
2019-04-21T02:49:37.709Z,59.70
2019-04-21T02:51:39.640Z,59.70
2019-04-21T02:56:14.535Z,60.80
2019-04-21T02:58:17.844Z,60.20
2019-04-21T03:00:29.837Z,60.80
2019-04-21T03:03:25.997Z,61.10
2019-04-21T03:09:49.539Z,61.70
2019-04-21T03:12:11.579Z,62.20
2019-04-21T03:14:24.941Z,62.50
2019-04-21T03:20:54.986Z,63.60
2019-04-21T03:23:20.965Z,63.20
2019-04-21T03:25:28.378Z,63.70
2019-04-21T03:27:29.195Z,64.20
2019-04-21T03:29:54.826Z,64.40
2019-04-21T03:32:36.596Z,64.50
2019-04-21T03:36:33.245Z,65.90
2019-04-21T03:38:16.591Z,65.60
2019-04-21T03:40:32.400Z,66.70
2019-04-21T03:42:59.109Z,67.60
2019-04-21T03:45:19.541Z,67.50
2019-04-21T03:47:49.176Z,69.60
2019-04-21T03:49:28.121Z,69.70
2019-04-21T03:51:29.887Z,69.90
2019-04-21T03:53:33.880Z,69.90
2019-04-21T03:58:05.542Z,70.40
2019-04-21T03:59:55.369Z,69.80
2019-04-21T04:02:23.079Z,70.60
2019-04-21T04:07:34.032Z,71.40
2019-04-21T04:09:49.724Z,71.60
2019-04-21T04:11:43.397Z,73.10
2019-04-21T04:14:12.809Z,72.10
2019-04-21T04:16:16.971Z,72.90
2019-04-21T04:18:32.850Z,73.60
2019-04-21T04:20:28.070Z,74.70
2019-04-21T04:27:05.093Z,74.00
2019-04-21T04:29:10.852Z,73.50
2019-04-21T04:31:27.778Z,74.20
2019-04-21T04:33:39.259Z,74.80
2019-04-21T04:35:40.640Z,75.40
2019-04-21T04:37:40.606Z,76.20
2019-04-21T04:40:03.243Z,77.00
2019-04-21T04:46:47.554Z,77.80
2019-04-21T04:49:01.725Z,77.30
2019-04-21T04:51:01.960Z,78.60
2019-04-21T04:53:32.805Z,77.60
2019-04-21T04:55:42.983Z,78.30
2019-04-21T04:59:47.616Z,79.60
2019-04-21T05:02:15.042Z,79.90
2019-04-21T05:08:55.898Z,80.90
2019-04-21T05:10:59.534Z,81.40
2019-04-21T05:12:44.235Z,82.10
2019-04-21T05:14:55.081Z,81.90
2019-04-21T05:19:48.380Z,82.40
2019-04-21T05:21:39.426Z,82.40
2019-04-21T05:23:44.287Z,82.80
2019-04-21T05:25:43.279Z,83.00
2019-04-21T05:27:52.590Z,82.70
2019-04-21T05:30:08.399Z,82.50
2019-04-21T05:34:42.623Z,81.80
2019-04-21T05:37:07.488Z,82.90
2019-04-21T05:39:36.074Z,81.00
2019-04-21T05:41:31.440Z,81.10
2019-04-21T05:43:46.537Z,80.60
2019-04-21T05:46:02.600Z,80.10
2019-04-21T05:50:28.012Z,80.10
2019-04-21T05:52:47.394Z,79.60
2019-04-21T05:55:06.351Z,80.00
2019-04-21T05:57:05.842Z,79.40
2019-04-21T05:59:12.173Z,79.60
2019-04-21T06:01:24.119Z,79.70
2019-04-21T06:03:34.277Z,79.70
2019-04-21T06:05:36.786Z,80.20
2019-04-21T06:07:58.815Z,79.40
2019-04-21T06:09:53.863Z,79.90
2019-04-21T06:11:51.245Z,78.80
2019-04-21T06:14:14.475Z,78.70
2019-04-21T06:16:43.824Z,78.80
2019-04-21T06:18:36.441Z,78.20
2019-04-21T06:23:03.595Z,78.50
2019-04-21T06:25:31.596Z,77.30
2019-04-21T06:27:22.449Z,76.90
2019-04-21T06:29:23.694Z,76.40
2019-04-21T06:31:49.891Z,76.00
2019-04-21T06:36:12.662Z,75.30
2019-04-21T06:37:59.894Z,75.10
2019-04-21T06:40:16.918Z,74.60
2019-04-21T06:42:09.164Z,74.10
2019-04-21T06:44:23.662Z,73.90
2019-04-21T06:46:30.966Z,72.60
2019-04-21T06:48:32.996Z,72.20
2019-04-21T06:50:41.226Z,71.70
2019-04-21T06:52:52.143Z,71.40
2019-04-21T06:55:00.038Z,70.80
2019-04-21T06:56:56.617Z,70.80
2019-04-21T06:59:05.973Z,70.30
2019-04-21T07:01:16.105Z,69.30
2019-04-21T07:03:23.619Z,69.30
2019-04-21T07:05:26.361Z,68.90
2019-04-21T07:07:27.776Z,68.50
2019-04-21T07:09:37.277Z,68.50
2019-04-21T07:11:42.208Z,68.50
2019-04-21T07:13:44.135Z,68.00
2019-04-21T07:16:00.481Z,67.50
2019-04-21T07:18:04.428Z,67.30
2019-04-21T07:20:12.827Z,67.10
2019-04-21T07:22:19.421Z,64.80
2019-04-21T07:27:35.141Z,65.30
2019-04-21T07:31:55.558Z,65.30
2019-04-21T07:36:04.607Z,64.70
2019-04-21T07:38:02.918Z,63.90
2019-04-21T07:40:07.277Z,63.60
2019-04-21T07:42:13.254Z,63.50
2019-04-21T07:44:17.124Z,62.50
2019-04-21T07:46:22.579Z,62.90
2019-04-21T07:48:43.132Z,62.10
2019-04-21T07:50:57.842Z,60.50
2019-04-21T07:53:16.326Z,61.20
2019-04-21T07:57:19.005Z,60.50
2019-04-21T07:59:41.143Z,61.00
2019-04-21T08:01:36.951Z,59.80
2019-04-21T08:03:46.578Z,59.30
2019-04-21T08:06:19.390Z,59.00
2019-04-21T08:08:22.058Z,58.60
2019-04-21T08:10:27.293Z,58.20
2019-04-21T08:12:55.200Z,56.70
2019-04-21T08:15:14.304Z,56.00
2019-04-21T08:17:10.976Z,55.00
2019-04-21T08:19:12.871Z,54.60
2019-04-21T08:21:24.707Z,54.40
2019-04-21T08:23:25.637Z,53.90
2019-04-21T08:25:36.306Z,53.30
2019-04-21T08:27:47.775Z,53.00
2019-04-21T08:32:11.956Z,52.70
2019-04-21T08:34:17.848Z,51.60
2019-04-21T08:36:24.596Z,51.10
2019-04-21T08:38:28.055Z,52.40
2019-04-21T08:40:36.627Z,52.20
2019-04-21T08:42:41.282Z,52.00
2019-04-21T08:44:46.862Z,51.60
2019-04-21T08:46:52.836Z,51.10
2019-04-21T08:49:15.607Z,51.00
2019-04-21T08:51:43.753Z,50.50
2019-04-21T08:53:39.927Z,49.50
2019-04-21T08:56:07.806Z,49.50
2019-04-21T08:58:22.778Z,49.20
2019-04-21T09:00:45.510Z,48.60
2019-04-21T09:03:12.384Z,48.00
2019-04-21T09:05:11.414Z,46.50
2019-04-21T09:07:32.051Z,45.60
2019-04-21T09:09:34.038Z,45.60
2019-04-21T09:11:46.168Z,46.00
2019-04-21T09:13:47.795Z,45.70
2019-04-21T09:15:54.872Z,45.50
2019-04-21T09:17:58.026Z,44.40
2019-04-21T09:20:13.983Z,45.00
2019-04-21T09:22:24.462Z,45.50
2019-04-21T09:24:35.145Z,45.70
2019-04-21T09:26:36.978Z,45.90
2019-04-21T09:28:57.177Z,46.20
2019-04-21T09:31:12.222Z,45.80
2019-04-21T09:33:37.739Z,45.30
2019-04-21T09:35:55.530Z,44.80
2019-04-21T09:38:02.219Z,45.10
2019-04-21T09:40:12.202Z,43.70
2019-04-21T09:42:19.342Z,43.80
2019-04-21T09:44:27.515Z,43.90
2019-04-21T09:46:28.239Z,43.90
2019-04-21T09:48:44.551Z,43.40
2019-04-21T09:50:40.168Z,43.50
2019-04-21T09:52:53.056Z,43.70
2019-04-21T09:55:10.075Z,42.70
2019-04-21T09:57:21.898Z,42.90
2019-04-21T09:59:23.735Z,43.50
2019-04-21T10:01:57.488Z,43.80
2019-04-21T10:03:52.185Z,44.50
2019-04-21T10:05:54.421Z,43.70
2019-04-21T10:08:01.271Z,42.10
2019-04-21T10:10:25.299Z,42.70
2019-04-21T10:12:30.681Z,42.90
2019-04-21T10:14:36.582Z,41.90
2019-04-21T10:16:49.468Z,41.70
2019-04-21T10:18:54.717Z,41.10
2019-04-21T10:20:59.572Z,41.40
2019-04-21T10:23:05.020Z,41.50
2019-04-21T10:25:12.407Z,40.40
2019-04-21T10:27:19.040Z,39.10
2019-04-21T10:29:27.903Z,39.30
2019-04-21T10:31:32.454Z,41.00
2019-04-21T10:33:37.372Z,39.20
2019-04-21T10:35:43.383Z,39.10
2019-04-21T10:38:01.427Z,39.80
2019-04-21T10:39:53.977Z,39.70
2019-04-21T10:41:59.594Z,38.00
2019-04-21T10:44:05.087Z,38.00
2019-04-21T10:46:10.721Z,38.70
2019-04-21T10:48:16.760Z,39.00
2019-04-21T10:50:22.566Z,39.00
2019-04-21T10:52:34.736Z,38.80
2019-04-21T10:55:03.368Z,38.40
2019-04-21T10:56:47.871Z,37.00
2019-04-21T10:58:54.136Z,36.30
2019-04-21T11:01:25.046Z,36.40
2019-04-21T11:03:35.247Z,35.50
2019-04-21T11:05:40.743Z,36.50
2019-04-21T11:08:00.899Z,37.30
2019-04-21T11:09:56.133Z,34.50
2019-04-21T11:12:01.995Z,34.20
2019-04-21T11:14:08.439Z,34.50
2019-04-21T11:16:15.418Z,33.20
2019-04-21T11:18:20.214Z,33.00
2019-04-21T11:20:24.803Z,34.10
2019-04-21T11:22:31.022Z,34.20
2019-04-21T11:24:36.767Z,35.50
2019-04-21T11:26:42.223Z,34.70
2019-04-21T11:28:48.970Z,35.40
2019-04-21T11:30:55.137Z,35.70
2019-04-21T11:32:59.762Z,34.20
2019-04-21T11:35:05.315Z,34.40
2019-04-21T11:41:34.008Z,34.50
2019-04-21T11:43:39.162Z,33.90
2019-04-21T11:45:44.385Z,33.20
2019-04-21T11:48:04.132Z,33.50
2019-04-21T11:50:09.086Z,33.30
2019-04-21T11:52:13.622Z,33.20
2019-04-21T11:54:19.142Z,33.90
2019-04-21T11:56:24.979Z,32.40
2019-04-21T11:58:30.054Z,31.70
2019-04-21T12:00:37.521Z,31.30
2019-04-21T12:02:41.597Z,31.30
2019-04-21T12:05:05.949Z,30.50
2019-04-21T12:07:11.381Z,31.40
2019-04-21T12:09:17.153Z,31.30
2019-04-21T12:11:23.256Z,31.10
2019-04-21T12:13:29.930Z,31.90
2019-04-21T12:17:39.978Z,30.10
2019-04-21T12:19:44.776Z,29.60
2019-04-21T12:22:02.395Z,30.20
2019-04-21T12:23:58.549Z,30.60
2019-04-21T12:26:03.424Z,29.80
2019-04-21T12:28:07.973Z,30.40
2019-04-21T12:32:40.092Z,29.70
2019-04-21T12:35:06.017Z,29.70
2019-04-21T12:37:11.058Z,29.60
2019-04-21T12:39:16.868Z,29.70
2019-04-21T12:41:22.574Z,29.90
2019-04-21T12:43:46.628Z,30.80
2019-04-21T12:45:52.243Z,30.00
2019-04-21T12:47:57.947Z,29.10
2019-04-21T12:50:04.516Z,29.90
2019-04-21T12:52:29.495Z,29.60
2019-04-21T12:54:35.464Z,30.60
2019-04-21T12:58:47.173Z,29.50
2019-04-21T13:00:51.731Z,29.90
2019-04-21T13:02:56.368Z,29.80
2019-04-21T13:05:02.102Z,30.30
2019-04-21T13:07:07.739Z,30.00
2019-04-21T13:09:16.054Z,30.20
2019-04-21T13:11:19.191Z,28.80
2019-04-21T13:13:23.972Z,30.00
2019-04-21T13:15:29.330Z,30.50
2019-04-21T13:17:35.370Z,30.20
2019-04-21T13:19:41.383Z,29.70
2019-04-21T13:21:45.998Z,29.80
2019-04-21T13:23:50.827Z,29.70
2019-04-21T13:25:56.077Z,30.00
2019-04-21T13:28:00.955Z,30.00
2019-04-21T13:30:08.229Z,30.30
2019-04-21T13:32:14.215Z,30.80
2019-04-21T13:34:20.097Z,30.60
2019-04-21T13:36:45.467Z,29.90
2019-04-21T13:41:47.475Z,30.40
2019-04-21T13:43:41.443Z,31.30
2019-04-21T13:45:45.910Z,31.00
2019-04-21T13:47:50.448Z,31.10
2019-04-21T13:49:59.218Z,30.00
2019-04-21T13:52:02.635Z,30.80
2019-04-21T13:54:07.419Z,31.10
2019-04-21T13:56:12.011Z,30.00
2019-04-21T13:58:16.859Z,29.90
2019-04-21T14:00:22.453Z,30.00
2019-04-21T14:02:28.873Z,29.90
2019-04-21T14:04:45.390Z,29.60
2019-04-21T14:06:50.140Z,30.30
2019-04-21T14:08:55.322Z,29.90
2019-04-21T14:10:59.953Z,29.80
2019-04-21T14:13:04.769Z,30.00
2019-04-21T14:15:10.365Z,30.30
2019-04-21T14:17:17.018Z,29.70
2019-04-21T14:19:21.920Z,30.70
2019-04-21T14:21:27.223Z,31.10
2019-04-21T14:23:38.087Z,32.00
2019-04-21T14:25:39.572Z,31.70
2019-04-21T14:27:47.357Z,30.80
2019-04-21T14:29:51.361Z,30.40
2019-04-21T14:31:56.101Z,30.70
2019-04-21T14:34:01.735Z,30.90
2019-04-21T14:36:08.584Z,31.00
2019-04-21T14:38:14.420Z,31.40
2019-04-21T14:40:23.981Z,31.80
2019-04-21T14:42:27.719Z,32.20
2019-04-21T14:44:33.223Z,30.70
2019-04-21T14:46:57.446Z,31.70
2019-04-21T14:49:17.387Z,30.80
2019-04-21T14:51:41.242Z,31.10
2019-04-21T14:54:05.931Z,32.40
2019-04-21T14:56:11.158Z,32.20
2019-04-21T14:58:35.131Z,31.00
2019-04-21T15:00:52.979Z,32.10
2019-04-21T15:02:59.215Z,31.10
2019-04-21T15:05:04.078Z,31.30
2019-04-21T15:07:09.702Z,30.60
2019-04-21T15:09:15.349Z,30.60
2019-04-21T15:11:40.095Z,30.50
2019-04-21T15:13:45.901Z,31.20
2019-04-21T15:15:52.098Z,31.50
2019-04-21T15:17:57.909Z,30.90
2019-04-21T15:20:10.177Z,31.00
2019-04-21T15:22:10.785Z,30.80
2019-04-21T15:24:36.197Z,30.40
2019-04-21T15:26:42.047Z,30.70
2019-04-21T15:28:47.034Z,31.60
2019-04-21T15:30:52.466Z,31.80
2019-04-21T15:33:00.316Z,32.10
2019-04-21T15:35:06.900Z,31.50
2019-04-21T15:37:19.991Z,30.70
2019-04-21T15:39:25.654Z,30.00
2019-04-21T15:41:32.255Z,30.70
2019-04-21T15:43:56.460Z,30.80
2019-04-21T15:50:39.825Z,30.50
2019-04-21T15:52:45.648Z,30.00
2019-04-21T15:54:50.858Z,29.60
2019-04-21T16:01:34.453Z,28.00
2019-04-21T16:03:39.158Z,27.30
2019-04-21T16:05:44.549Z,27.00
2019-04-21T16:07:49.861Z,26.70
2019-04-21T16:10:10.670Z,26.00
2019-04-21T16:12:15.907Z,24.90
2019-04-21T16:14:20.994Z,24.00
2019-04-21T16:16:28.322Z,24.60
2019-04-21T16:18:32.191Z,24.40
2019-04-21T16:20:51.489Z,24.00
2019-04-21T16:22:56.754Z,22.90
2019-04-21T16:25:03.350Z,23.00
2019-04-21T16:27:27.639Z,24.10
2019-04-21T16:29:35.840Z,23.40
2019-04-21T16:31:42.707Z,22.90
2019-04-21T16:34:00.941Z,22.50
2019-04-21T16:36:09.889Z,23.20
2019-04-21T16:38:17.559Z,23.50
2019-04-21T16:40:23.648Z,24.00
2019-04-21T16:42:28.191Z,24.20
2019-04-21T16:44:33.009Z,25.20
2019-04-21T16:46:37.790Z,26.50
2019-04-21T16:49:04.077Z,27.50
2019-04-21T16:56:33.251Z,29.30
2019-04-21T16:58:42.939Z,29.40
2019-04-21T17:01:00.899Z,29.80
2019-04-21T17:03:02.291Z,30.10
2019-04-21T17:05:07.437Z,30.40
2019-04-21T17:07:18.019Z,30.80
2019-04-21T17:11:37.200Z,31.00
2019-04-21T17:13:42.116Z,31.10
2019-04-21T17:16:57.594Z,31.60
2019-04-21T17:19:09.566Z,31.80
2019-04-21T17:21:07.406Z,32.30
2019-04-21T17:23:13.469Z,32.60
2019-04-21T17:25:39.280Z,33.30
2019-04-21T17:27:45.492Z,33.50
2019-04-21T17:29:50.611Z,33.70
2019-04-21T17:31:57.366Z,33.60
2019-04-21T17:34:24.999Z,33.90
2019-04-21T17:36:27.296Z,34.60
2019-04-21T17:38:34.228Z,34.50
2019-04-21T17:40:40.001Z,34.90
2019-04-21T17:42:50.707Z,35.00
2019-04-21T17:44:51.327Z,35.30
2019-04-21T17:47:01.530Z,35.50
2019-04-21T17:49:03.167Z,36.00
2019-04-21T17:51:25.651Z,36.00
2019-04-21T17:53:53.048Z,35.80
2019-04-21T17:56:46.260Z,36.00
2019-04-21T17:58:48.734Z,36.20
2019-04-21T18:03:25.235Z,36.50
2019-04-21T18:05:29.063Z,36.80
2019-04-21T18:07:31.213Z,37.00
2019-04-21T18:09:46.984Z,37.30
2019-04-21T18:11:46.587Z,37.30
2019-04-21T18:13:30.732Z,37.50
2019-04-21T18:15:51.564Z,37.90
2019-04-21T18:17:42.707Z,37.90
2019-04-21T18:19:51.776Z,38.20
2019-04-21T18:22:19.532Z,38.40
2019-04-21T18:24:36.668Z,38.60
2019-04-21T18:26:40.634Z,38.40
2019-04-21T18:28:40.856Z,38.50
2019-04-21T18:31:07.797Z,39.00
2019-04-21T18:33:21.366Z,38.70
2019-04-21T18:35:29.331Z,38.80
2019-04-21T18:38:13.301Z,39.30
2019-04-21T18:40:21.471Z,39.40
2019-04-21T18:42:47.769Z,39.50
2019-04-21T18:47:29.066Z,39.30
2019-04-21T18:49:19.442Z,39.70
2019-04-21T18:51:54.187Z,39.70
2019-04-21T18:54:14.950Z,39.70
2019-04-21T18:56:06.455Z,39.90
2019-04-21T19:00:21.959Z,40.10
2019-04-21T19:02:22.482Z,40.40
2019-04-21T19:04:32.443Z,40.30
2019-04-21T19:06:54.511Z,40.40
2019-04-21T19:09:02.067Z,40.70
2019-04-21T19:11:08.790Z,41.00
2019-04-21T19:13:39.859Z,40.90
2019-04-21T19:15:16.318Z,40.80
2019-04-21T19:21:33.478Z,41.30
2019-04-21T19:23:52.032Z,41.30
2019-04-21T19:26:03.723Z,41.50
2019-04-21T19:27:55.400Z,41.50
2019-04-21T19:30:20.182Z,41.50
2019-04-21T19:34:18.746Z,41.80
2019-04-21T19:36:36.979Z,41.90
2019-04-21T19:38:51.525Z,42.10
2019-04-21T19:41:03.945Z,42.50
2019-04-21T19:43:35.657Z,42.40
2019-04-21T19:45:54.089Z,42.60
2019-04-21T19:48:05.566Z,42.50
2019-04-21T19:50:11.181Z,42.50
2019-04-21T19:52:07.464Z,42.60
2019-04-21T19:54:19.176Z,42.60
2019-04-21T19:56:14.644Z,42.30
2019-04-21T19:58:42.475Z,42.60
2019-04-21T20:00:46.485Z,42.50
2019-04-21T20:02:52.325Z,42.80
2019-04-21T20:07:23.427Z,43.30
2019-04-21T20:09:32.209Z,43.90
2019-04-21T20:11:38.799Z,43.40
2019-04-21T20:14:03.637Z,43.70
2019-04-21T20:15:57.200Z,43.80
2019-04-21T20:20:15.284Z,43.90
2019-04-21T20:22:47.069Z,44.30
2019-04-21T20:24:58.630Z,44.20
2019-04-21T20:27:03.498Z,44.30
2019-04-21T20:31:32.355Z,44.40
2019-04-21T20:33:52.546Z,44.50
2019-04-21T20:35:51.699Z,44.80
2019-04-21T20:37:47.806Z,44.60
2019-04-21T20:39:46.225Z,44.70
2019-04-21T20:41:56.008Z,44.50
2019-04-21T20:44:11.881Z,44.80
2019-04-21T20:46:11.813Z,44.90
2019-04-21T20:48:13.413Z,45.20
2019-04-21T20:50:19.676Z,45.20
2019-04-21T20:52:35.895Z,45.40
2019-04-21T20:54:40.817Z,45.30
2019-04-21T20:56:49.705Z,45.40
2019-04-21T20:58:58.405Z,45.30
2019-04-21T21:01:22.545Z,45.50
2019-04-21T21:03:12.045Z,45.60
2019-04-21T21:05:30.558Z,45.80
2019-04-21T21:07:45.886Z,46.00
2019-04-21T21:09:57.439Z,46.20
2019-04-21T21:12:13.055Z,46.30
2019-04-21T21:14:25.190Z,46.30
2019-04-21T21:16:32.425Z,46.60
2019-04-21T21:25:41.904Z,46.20
2019-04-21T21:27:32.165Z,47.20
2019-04-21T21:29:44.782Z,47.40
2019-04-21T21:31:55.562Z,47.90
2019-04-21T21:34:03.406Z,48.00
2019-04-21T21:36:06.462Z,48.20
2019-04-21T21:38:18.017Z,48.70
2019-04-21T21:40:18.084Z,48.70
2019-04-21T21:42:25.287Z,49.00
2019-04-21T21:44:35.826Z,49.10
2019-04-21T21:47:08.807Z,49.20
2019-04-21T21:49:20.726Z,49.70
2019-04-21T21:51:48.412Z,49.20
2019-04-21T21:53:38.751Z,49.30
2019-04-21T21:55:42.646Z,49.70
2019-04-21T22:00:04.730Z,50.20
2019-04-21T22:02:17.243Z,50.70
2019-04-21T22:04:25.827Z,50.60
2019-04-21T22:06:38.725Z,51.10
2019-04-21T22:08:36.522Z,51.00
2019-04-21T22:10:45.314Z,51.30
2019-04-21T22:12:57.838Z,51.80
2019-04-21T22:15:02.447Z,51.80
2019-04-21T22:17:24.726Z,52.00
2019-04-21T22:19:29.791Z,52.10
2019-04-21T22:21:36.484Z,52.30
2019-04-21T22:23:38.168Z,52.50
2019-04-21T22:25:33.874Z,52.40
2019-04-21T22:27:39.108Z,52.50
2019-04-21T22:29:49.217Z,52.90
2019-04-21T22:31:52.748Z,53.10
2019-04-21T22:34:02.156Z,53.40
2019-04-21T22:36:18.145Z,54.00
2019-04-21T22:38:25.680Z,53.90
2019-04-21T22:40:51.911Z,54.20
2019-04-21T22:42:53.603Z,54.30
2019-04-21T22:44:48.167Z,54.70
2019-04-21T22:47:01.457Z,54.90
2019-04-21T22:49:42.376Z,55.30
2019-04-21T22:51:51.544Z,55.30
2019-04-21T22:53:57.586Z,55.50
2019-04-21T22:56:10.914Z,55.90
2019-04-21T22:58:07.861Z,56.70
2019-04-21T23:00:16.706Z,56.70
2019-04-21T23:02:24.702Z,56.60
2019-04-21T23:04:36.858Z,57.40
2019-04-21T23:06:34.376Z,56.90
2019-04-21T23:08:42.016Z,57.40
2019-04-21T23:10:49.591Z,57.80
2019-04-21T23:12:52.056Z,57.80
2019-04-21T23:15:05.750Z,58.20
2019-04-21T23:17:42.226Z,58.80
2019-04-21T23:19:44.794Z,58.90
2019-04-21T23:21:55.352Z,59.50
2019-04-21T23:24:28.244Z,59.70
2019-04-21T23:26:26.722Z,59.70
2019-04-21T23:28:43.265Z,60.00
2019-04-21T23:30:45.893Z,60.40
2019-04-21T23:32:50.539Z,60.10
2019-04-21T23:34:54.425Z,60.30
2019-04-21T23:37:06.731Z,60.40
2019-04-21T23:39:15.980Z,60.40
2019-04-21T23:43:26.423Z,61.10
2019-04-21T23:47:57.771Z,61.90
2019-04-21T23:50:01.403Z,62.70
2019-04-21T23:52:04.441Z,62.10
2019-04-21T23:54:25.188Z,62.40
2019-04-21T23:56:37.097Z,62.50
2019-04-21T23:58:39.894Z,63.10
